Time;durP1;ratioP1;P1;durP2;ratioP2;P2;SDS_P1;SDS_P2;PMS_P1;PMS_P2;Temp;Humidity;BMP_temperature;BMP_pressure;BME280_temperature;BME280_humidity;BME280_pressure;Samples;Min_cycle;Max_cycle;Signal;HPM_P1;HPM_P2
2024/01/02 00:01:09;;;;;;;6.28;1.90;;;;;;;;;;5044770;28;20080;-67
2024/01/02 00:03:34;;;;;;;8.32;2.58;;;;;;;;;;5044173;28;20136;-67
2024/01/02 00:06:01;;;;;;;5.90;2.10;;;;;;;;;;5046215;28;20060;-66
2024/01/02 00:08:27;;;;;;;10.13;2.03;;;;;;;;;;5042041;28;20037;-66
2024/01/02 00:10:53;;;;;;;10.68;2.88;;;;;;;;;;5044975;28;20033;-66
2024/01/02 00:13:19;;;;;;;10.38;2.88;;;;;;;;;;5043933;28;20410;-66
2024/01/02 00:15:45;;;;;;;9.27;2.53;;;;;;;;;;5045547;28;20041;-66
2024/01/02 00:18:11;;;;;;;5.10;2.22;;;;;;;;;;5046404;28;20062;-66
2024/01/02 00:20:37;;;;;;;6.90;2.38;;;;;;;;;;5044292;28;20041;-66
2024/01/02 00:23:03;;;;;;;6.05;2.40;;;;;;;;;;5045580;28;20496;-66
2024/01/02 00:25:29;;;;;;;8.82;2.72;;;;;;;;;;5045681;28;20044;-67
2024/01/02 00:27:55;;;;;;;5.60;2.63;;;;;;;;;;5045387;28;20289;-66
2024/01/02 00:30:21;;;;;;;5.00;2.50;;;;;;;;;;5042544;28;20583;-66
2024/01/02 00:32:48;;;;;;;2.92;1.85;;;;;;;;;;5043358;28;20512;-66
2024/01/02 00:35:14;;;;;;;6.15;2.10;;;;;;;;;;5045239;28;20055;-66
2024/01/02 00:37:40;;;;;;;6.63;1.88;;;;;;;;;;5045279;28;20037;-66
2024/01/02 00:40:06;;;;;;;4.50;2.33;;;;;;;;;;5044729;28;20041;-66
2024/01/02 00:42:32;;;;;;;5.05;2.22;;;;;;;;;;5043438;28;20080;-67
2024/01/02 00:44:59;;;;;;;6.07;2.45;;;;;;;;;;5045067;28;20469;-67
2024/01/02 00:47:26;;;;;;;3.03;2.00;;;;;;;;;;5045714;28;20056;-66
2024/01/02 00:49:52;;;;;;;4.00;2.47;;;;;;;;;;5044251;28;20525;-67
2024/01/02 00:52:18;;;;;;;4.28;2.35;;;;;;;;;;5044032;28;20053;-67
2024/01/02 00:54:44;;;;;;;5.53;2.42;;;;;;;;;;5045265;28;20035;-67
2024/01/02 00:57:10;;;;;;;3.13;1.80;;;;;;;;;;5042874;28;20566;-67
2024/01/02 00:59:36;;;;;;;3.88;2.20;;;;;;;;;;5043801;28;20040;-67
2024/01/02 01:02:02;;;;;;;7.07;1.70;;;;;;;;;;5045476;28;20037;-64
2024/01/02 01:04:28;;;;;;;4.40;1.90;;;;;;;;;;5043304;28;20762;-65
2024/01/02 01:06:54;;;;;;;4.63;1.75;;;;;;;;;;5045492;28;20036;-64
2024/01/02 01:09:20;;;;;;;5.10;1.70;;;;;;;;;;5045144;28;20036;-64
2024/01/02 01:11:46;;;;;;;3.10;1.20;;;;;;;;;;5043968;28;20037;-66
2024/01/02 01:14:12;;;;;;;2.60;1.40;;;;;;;;;;5045058;28;20050;-64
2024/01/02 01:16:38;;;;;;;6.97;2.22;;;;;;;;;;5044297;28;20712;-64
2024/01/02 01:19:04;;;;;;;5.00;1.52;;;;;;;;;;5043921;28;20113;-64
2024/01/02 01:21:30;;;;;;;3.83;1.38;;;;;;;;;;5042625;28;20052;-65
2024/01/02 01:23:56;;;;;;;4.22;1.38;;;;;;;;;;5043457;28;20040;-65
2024/01/02 01:26:22;;;;;;;5.47;2.20;;;;;;;;;;5043144;28;20045;-65
2024/01/02 01:28:48;;;;;;;5.50;2.05;;;;;;;;;;5043305;28;20750;-65
2024/01/02 01:31:14;;;;;;;10.80;3.00;;;;;;;;;;5041993;28;20048;-65
2024/01/02 01:33:40;;;;;;;7.32;1.73;;;;;;;;;;5044187;28;20037;-64
2024/01/02 01:36:06;;;;;;;5.50;1.92;;;;;;;;;;5044981;28;20518;-64
2024/01/02 01:38:32;;;;;;;5.57;1.42;;;;;;;;;;5043826;28;20140;-65
2024/01/02 01:40:58;;;;;;;5.97;1.90;;;;;;;;;;5045126;28;20119;-65
2024/01/02 01:43:24;;;;;;;5.45;1.40;;;;;;;;;;5042001;28;20052;-64
2024/01/02 01:45:51;;;;;;;8.10;2.92;;;;;;;;;;5042773;28;20060;-64
2024/01/02 01:48:17;;;;;;;6.97;2.08;;;;;;;;;;5043727;28;20044;-64
2024/01/02 01:50:43;;;;;;;3.42;1.52;;;;;;;;;;5044090;28;20106;-64
2024/01/02 01:53:09;;;;;;;3.83;1.65;;;;;;;;;;5043986;28;20033;-64
2024/01/02 01:55:36;;;;;;;4.50;1.77;;;;;;;;;;5043697;28;20103;-65
2024/01/02 01:58:03;;;;;;;5.22;1.58;;;;;;;;;;5044115;28;20045;-64
2024/01/02 02:00:29;;;;;;;5.22;1.92;;;;;;;;;;5043828;28;20041;-64
2024/01/02 02:02:56;;;;;;;9.18;2.45;;;;;;;;;;5044689;28;20041;-64
2024/01/02 02:05:26;;;;;;;4.50;1.42;;;;;;;;;;5042329;28;20118;-64
2024/01/02 02:07:53;;;;;;;8.23;1.70;;;;;;;;;;5042589;28;20049;-64
2024/01/02 02:10:20;;;;;;;2.35;1.33;;;;;;;;;;5043142;28;20670;-65
2024/01/02 02:12:46;;;;;;;4.80;1.50;;;;;;;;;;5043704;28;20079;-65
2024/01/02 02:15:13;;;;;;;5.38;1.65;;;;;;;;;;5043676;28;20559;-65
2024/01/02 02:17:39;;;;;;;6.32;1.67;;;;;;;;;;5040508;28;20076;-64
2024/01/02 02:20:07;;;;;;;6.07;1.50;;;;;;;;;;5044270;28;20075;-64
2024/01/02 02:22:34;;;;;;;8.73;2.35;;;;;;;;;;5043647;28;20385;-64
2024/01/02 02:25:01;;;;;;;5.15;1.92;;;;;;;;;;5044033;28;20071;-64
2024/01/02 02:27:28;;;;;;;4.55;1.48;;;;;;;;;;5043401;28;20127;-65
2024/01/02 02:29:54;;;;;;;3.03;1.35;;;;;;;;;;5043538;28;20044;-65
2024/01/02 02:32:20;;;;;;;6.25;2.05;;;;;;;;;;5044095;28;20052;-65
2024/01/02 02:34:46;;;;;;;7.30;1.98;;;;;;;;;;5043064;28;20047;-65
2024/01/02 02:37:12;;;;;;;7.63;1.77;;;;;;;;;;5043997;28;20393;-64
2024/01/02 02:39:39;;;;;;;5.05;1.63;;;;;;;;;;5043638;28;20494;-66
2024/01/02 02:42:05;;;;;;;3.78;1.17;;;;;;;;;;5042406;28;20155;-64
2024/01/02 02:44:33;;;;;;;6.63;1.65;;;;;;;;;;5042288;28;20053;-65
2024/01/02 02:47:00;;;;;;;6.72;1.48;;;;;;;;;;5044201;28;20559;-65
2024/01/02 02:49:26;;;;;;;4.53;1.95;;;;;;;;;;5041689;28;20041;-65
2024/01/02 02:51:52;;;;;;;4.63;1.95;;;;;;;;;;5042199;28;20048;-65
2024/01/02 02:54:18;;;;;;;3.58;1.85;;;;;;;;;;5043085;28;20130;-65
2024/01/02 02:56:45;;;;;;;3.28;1.42;;;;;;;;;;5039611;28;20505;-65
2024/01/02 02:59:11;;;;;;;5.22;2.33;;;;;;;;;;5043377;28;20095;-66
2024/01/02 03:01:37;;;;;;;4.43;1.88;;;;;;;;;;5042884;28;20029;-65
2024/01/02 03:04:04;;;;;;;3.60;1.70;;;;;;;;;;5042524;28;20041;-65
2024/01/02 03:06:30;;;;;;;3.65;1.58;;;;;;;;;;5043325;28;20147;-65
2024/01/02 03:08:56;;;;;;;5.47;1.83;;;;;;;;;;5042413;28;20128;-65
2024/01/02 03:11:22;;;;;;;4.22;1.90;;;;;;;;;;5042165;28;20105;-65
2024/01/02 03:13:48;;;;;;;5.53;2.58;;;;;;;;;;5043432;28;20040;-65
2024/01/02 03:16:15;;;;;;;5.85;2.72;;;;;;;;;;5040412;28;20052;-65
2024/01/02 03:18:41;;;;;;;6.90;2.50;;;;;;;;;;5041597;28;20540;-65
2024/01/02 03:21:10;;;;;;;5.50;3.10;;;;;;;;;;5045560;28;20540;-65
2024/01/02 03:23:37;;;;;;;5.43;2.83;;;;;;;;;;5043910;28;20048;-65
2024/01/02 03:26:03;;;;;;;3.05;2.78;;;;;;;;;;5047277;28;20041;-65
2024/01/02 03:28:29;;;;;;;3.55;2.10;;;;;;;;;;5047717;28;20037;-65
2024/01/02 03:30:55;;;;;;;4.32;2.53;;;;;;;;;;5046236;28;20047;-65
2024/01/02 03:33:21;;;;;;;5.25;2.53;;;;;;;;;;5045908;28;20155;-65
2024/01/02 03:35:47;;;;;;;4.97;2.40;;;;;;;;;;5042713;28;20551;-65
2024/01/02 03:38:14;;;;;;;5.82;2.50;;;;;;;;;;5045477;28;20180;-65
2024/01/02 03:40:40;;;;;;;3.95;2.40;;;;;;;;;;5045407;28;20040;-65
2024/01/02 03:43:06;;;;;;;4.22;2.17;;;;;;;;;;5046368;28;20044;-65
2024/01/02 03:45:32;;;;;;;5.60;2.88;;;;;;;;;;5045469;28;20048;-65
2024/01/02 03:47:58;;;;;;;5.35;2.65;;;;;;;;;;5047263;28;20047;-65
2024/01/02 03:50:24;;;;;;;3.38;2.30;;;;;;;;;;5046560;28;20064;-65
2024/01/02 03:52:50;;;;;;;4.72;2.53;;;;;;;;;;5046114;28;20483;-65
2024/01/02 03:55:16;;;;;;;4.25;2.70;;;;;;;;;;5045690;28;20550;-65
2024/01/02 03:57:43;;;;;;;3.80;2.10;;;;;;;;;;5046153;28;20044;-65
2024/01/02 04:00:09;;;;;;;5.93;2.85;;;;;;;;;;5044613;28;20053;-66
2024/01/02 04:02:35;;;;;;;3.72;2.15;;;;;;;;;;5044711;28;20052;-65
2024/01/02 04:05:03;;;;;;;4.35;2.13;;;;;;;;;;5046706;28;20049;-65
2024/01/02 04:07:29;;;;;;;5.70;2.20;;;;;;;;;;5044586;28;20041;-65
2024/01/02 04:09:55;;;;;;;5.47;2.53;;;;;;;;;;5044861;28;20132;-65
2024/01/02 04:12:21;;;;;;;2.42;2.10;;;;;;;;;;5046663;28;20183;-65
2024/01/02 04:14:47;;;;;;;5.47;2.58;;;;;;;;;;5045417;28;20516;-65
2024/01/02 04:17:13;;;;;;;2.58;1.90;;;;;;;;;;5045426;28;20045;-65
2024/01/02 04:19:39;;;;;;;4.13;2.38;;;;;;;;;;5045052;28;20055;-65
2024/01/02 04:22:05;;;;;;;6.85;2.40;;;;;;;;;;5046181;28;20052;-65
2024/01/02 04:24:31;;;;;;;5.03;2.20;;;;;;;;;;5045757;28;20037;-65
2024/01/02 04:26:57;;;;;;;3.33;1.95;;;;;;;;;;5042288;28;20059;-65
2024/01/02 04:29:23;;;;;;;2.38;1.98;;;;;;;;;;5045985;28;20098;-65
2024/01/02 04:31:49;;;;;;;2.35;1.70;;;;;;;;;;5044859;28;20041;-65
2024/01/02 04:34:15;;;;;;;3.25;2.10;;;;;;;;;;5044136;28;20056;-65
2024/01/02 04:36:41;;;;;;;4.25;1.95;;;;;;;;;;5045329;28;20145;-65
2024/01/02 04:39:07;;;;;;;3.35;1.77;;;;;;;;;;5039287;28;20047;-66
2024/01/02 04:41:34;;;;;;;4.53;2.15;;;;;;;;;;5043897;28;20067;-65
2024/01/02 04:44:00;;;;;;;5.63;1.95;;;;;;;;;;5045286;28;20037;-65
2024/01/02 04:46:28;;;;;;;5.93;1.98;;;;;;;;;;5044966;28;20850;-65
2024/01/02 04:48:55;;;;;;;3.58;1.75;;;;;;;;;;5045092;28;20119;-65
2024/01/02 04:51:21;;;;;;;3.80;2.08;;;;;;;;;;5045587;28;20548;-65
2024/01/02 04:53:47;;;;;;;3.10;1.80;;;;;;;;;;5045006;28;20041;-66
2024/01/02 04:56:13;;;;;;;2.42;1.60;;;;;;;;;;5045284;28;20822;-65
2024/01/02 04:58:39;;;;;;;2.25;1.50;;;;;;;;;;5045061;28;20041;-65
2024/01/02 05:01:05;;;;;;;2.92;1.65;;;;;;;;;;5045539;28;20048;-65
2024/01/02 05:03:31;;;;;;;2.45;1.55;;;;;;;;;;5043313;28;20064;-65
2024/01/02 05:05:57;;;;;;;1.83;1.40;;;;;;;;;;5045358;28;20489;-65
2024/01/02 05:08:23;;;;;;;4.45;1.73;;;;;;;;;;5044869;28;20048;-65
2024/01/02 05:10:49;;;;;;;3.40;1.65;;;;;;;;;;5043006;28;20507;-65
2024/01/02 05:13:15;;;;;;;3.80;1.30;;;;;;;;;;5043914;28;20131;-65
2024/01/02 05:15:41;;;;;;;1.85;1.23;;;;;;;;;;5044061;28;20044;-65
2024/01/02 05:18:07;;;;;;;1.73;1.15;;;;;;;;;;5042385;28;20118;-65
2024/01/02 05:20:33;;;;;;;1.52;0.98;;;;;;;;;;5043597;28;20596;-66
2024/01/02 05:23:03;;;;;;;1.55;1.27;;;;;;;;;;5045023;28;20056;-65
2024/01/02 05:25:29;;;;;;;3.28;0.98;;;;;;;;;;5045144;28;20090;-65
2024/01/02 05:27:55;;;;;;;2.00;0.88;;;;;;;;;;5040951;28;21183;-65
2024/01/02 05:30:21;;;;;;;1.63;0.88;;;;;;;;;;5044489;28;20044;-65
2024/01/02 05:32:47;;;;;;;4.15;1.05;;;;;;;;;;5044201;28;20068;-65
2024/01/02 05:35:13;;;;;;;1.60;1.10;;;;;;;;;;5043436;28;20045;-65
2024/01/02 05:37:39;;;;;;;1.50;1.00;;;;;;;;;;5043661;28;20068;-65
2024/01/02 05:40:07;;;;;;;1.73;0.85;;;;;;;;;;5044978;28;20122;-65
2024/01/02 05:42:33;;;;;;;2.15;1.17;;;;;;;;;;5040862;28;20549;-65
2024/01/02 05:44:59;;;;;;;0.77;0.73;;;;;;;;;;5043931;28;20124;-65
2024/01/02 05:47:25;;;;;;;2.15;1.05;;;;;;;;;;5044013;28;20068;-65
2024/01/02 05:49:51;;;;;;;1.00;1.00;;;;;;;;;;5044121;28;20544;-65
2024/01/02 05:52:17;;;;;;;2.95;1.00;;;;;;;;;;5042633;28;20126;-65
2024/01/02 05:54:43;;;;;;;0.80;0.80;;;;;;;;;;5043890;28;20532;-65
2024/01/02 05:57:09;;;;;;;1.25;0.75;;;;;;;;;;5044509;28;20076;-65
2024/01/02 05:59:35;;;;;;;1.25;0.80;;;;;;;;;;5043394;28;20052;-65
2024/01/02 06:02:01;;;;;;;1.63;0.88;;;;;;;;;;5043299;28;20048;-65
2024/01/02 06:04:28;;;;;;;1.58;1.13;;;;;;;;;;5044368;28;20409;-65
2024/01/02 06:06:54;;;;;;;1.95;0.98;;;;;;;;;;5041992;28;20506;-65
2024/01/02 06:09:20;;;;;;;0.75;0.60;;;;;;;;;;5044487;28;20052;-65
2024/01/02 06:11:46;;;;;;;0.70;0.60;;;;;;;;;;5041624;28;20052;-65
2024/01/02 06:14:12;;;;;;;0.85;0.52;;;;;;;;;;5043700;28;20125;-65
2024/01/02 06:16:38;;;;;;;3.05;0.93;;;;;;;;;;5041973;28;20429;-65
2024/01/02 06:19:05;;;;;;;1.27;0.40;;;;;;;;;;5043150;28;20153;-65
2024/01/02 06:21:31;;;;;;;1.10;0.60;;;;;;;;;;5043028;28;20076;-65
2024/01/02 06:23:57;;;;;;;0.82;0.52;;;;;;;;;;5036615;28;20409;-65
2024/01/02 06:26:23;;;;;;;0.82;0.60;;;;;;;;;;5042521;28;20045;-65
2024/01/02 06:28:49;;;;;;;1.33;0.50;;;;;;;;;;5041402;28;20444;-65
2024/01/02 06:31:15;;;;;;;1.88;0.50;;;;;;;;;;5044141;28;20331;-65
2024/01/02 06:33:44;;;;;;;0.55;0.35;;;;;;;;;;5041446;28;20527;-65
2024/01/02 06:36:10;;;;;;;0.50;0.32;;;;;;;;;;5041485;28;20045;-66
2024/01/02 06:38:36;;;;;;;1.33;0.55;;;;;;;;;;5043909;28;20664;-66
2024/01/02 06:41:03;;;;;;;0.90;0.35;;;;;;;;;;5042936;28;20107;-65
2024/01/02 06:43:29;;;;;;;0.50;0.38;;;;;;;;;;5043977;28;20400;-65
2024/01/02 06:45:55;;;;;;;0.30;0.22;;;;;;;;;;5043777;28;20045;-65
2024/01/02 06:48:21;;;;;;;0.20;0.20;;;;;;;;;;5041530;28;20047;-66
2024/01/02 06:50:47;;;;;;;0.43;0.30;;;;;;;;;;5041909;28;20049;-65
2024/01/02 06:53:13;;;;;;;0.25;0.20;;;;;;;;;;5042935;28;20497;-65
2024/01/02 06:55:39;;;;;;;0.45;0.30;;;;;;;;;;5044259;28;20043;-65
2024/01/02 06:58:05;;;;;;;1.02;0.22;;;;;;;;;;5047556;28;20045;-65
2024/01/02 07:00:32;;;;;;;0.75;0.30;;;;;;;;;;5047734;28;20117;-65
2024/01/02 07:02:58;;;;;;;0.30;0.30;;;;;;;;;;5047212;28;20045;-65
2024/01/02 07:05:24;;;;;;;0.55;0.30;;;;;;;;;;5046560;28;20049;-66
2024/01/02 07:07:50;;;;;;;0.25;0.20;;;;;;;;;;5044699;28;20052;-66
2024/01/02 07:10:17;;;;;;;0.40;0.30;;;;;;;;;;5046717;28;20074;-65
2024/01/02 07:12:43;;;;;;;0.88;0.20;;;;;;;;;;5046609;28;20090;-65
2024/01/02 07:15:09;;;;;;;0.32;0.20;;;;;;;;;;5047706;28;20040;-65
2024/01/02 07:17:35;;;;;;;0.20;0.20;;;;;;;;;;5046240;28;20052;-65
2024/01/02 07:20:02;;;;;;;0.20;0.20;;;;;;;;;;5047455;28;20037;-65
2024/01/02 07:22:28;;;;;;;0.35;0.25;;;;;;;;;;5046153;28;20421;-65
2024/01/02 07:24:55;;;;;;;0.22;0.22;;;;;;;;;;5045735;28;20179;-65
2024/01/02 07:27:21;;;;;;;0.22;0.20;;;;;;;;;;5047361;28;20037;-66
2024/01/02 07:29:47;;;;;;;0.38;0.38;;;;;;;;;;5046362;28;20041;-65
2024/01/02 07:32:14;;;;;;;0.20;0.20;;;;;;;;;;5044587;28;20174;-65
2024/01/02 07:34:40;;;;;;;0.50;0.30;;;;;;;;;;5045586;28;20044;-65
2024/01/02 07:37:05;;;;;;;0.35;0.32;;;;;;;;;;5046827;28;20037;-65
2024/01/02 07:39:32;;;;;;;0.40;0.40;;;;;;;;;;5045888;28;20041;-65
2024/01/02 07:41:58;;;;;;;0.35;0.35;;;;;;;;;;5045729;28;20060;-65
2024/01/02 07:44:24;;;;;;;0.43;0.30;;;;;;;;;;5045654;28;20033;-65
2024/01/02 07:46:50;;;;;;;0.28;0.28;;;;;;;;;;5043917;28;20045;-65
2024/01/02 07:49:16;;;;;;;0.20;0.20;;;;;;;;;;5045243;28;20403;-65
2024/01/02 07:51:42;;;;;;;0.50;0.50;;;;;;;;;;5045370;28;20051;-65
2024/01/02 07:54:09;;;;;;;0.38;0.30;;;;;;;;;;5047027;28;20048;-65
2024/01/02 07:56:35;;;;;;;0.40;0.40;;;;;;;;;;5046321;28;20036;-66
2024/01/02 07:59:01;;;;;;;0.40;0.40;;;;;;;;;;5046433;28;20114;-66
2024/01/02 08:01:27;;;;;;;0.22;0.22;;;;;;;;;;5042453;28;20597;-65
2024/01/02 08:03:53;;;;;;;0.35;0.32;;;;;;;;;;5045181;28;20120;-65
2024/01/02 08:06:19;;;;;;;0.38;0.38;;;;;;;;;;5045468;28;20386;-65
2024/01/02 08:08:45;;;;;;;0.30;0.30;;;;;;;;;;5041063;28;20052;-65
2024/01/02 08:11:11;;;;;;;0.75;0.40;;;;;;;;;;5045219;28;20049;-65
2024/01/02 08:13:37;;;;;;;0.30;0.30;;;;;;;;;;5044401;28;20506;-65
2024/01/02 08:16:03;;;;;;;0.30;0.30;;;;;;;;;;5046017;28;20052;-65
2024/01/02 08:18:30;;;;;;;0.50;0.50;;;;;;;;;;5076798;28;20091;-65
2024/01/02 08:20:56;;;;;;;0.68;0.68;;;;;;;;;;5042641;28;20185;-65
2024/01/02 08:23:22;;;;;;;0.50;0.50;;;;;;;;;;5044933;28;20060;-65
2024/01/02 08:25:49;;;;;;;0.60;0.60;;;;;;;;;;5044191;28;20120;-65
2024/01/02 08:28:15;;;;;;;1.17;1.00;;;;;;;;;;5044831;28;20065;-65
2024/01/02 08:30:41;;;;;;;0.88;0.88;;;;;;;;;;5045721;28;20494;-65
2024/01/02 08:33:07;;;;;;;0.63;0.60;;;;;;;;;;5041466;28;20068;-65
2024/01/02 08:35:33;;;;;;;1.02;1.00;;;;;;;;;;5040693;28;20060;-65
2024/01/02 08:38:02;;;;;;;1.40;1.30;;;;;;;;;;5045666;28;20040;-65
2024/01/02 08:40:28;;;;;;;1.70;1.42;;;;;;;;;;5045063;28;20120;-65
2024/01/02 08:42:54;;;;;;;3.53;1.48;;;;;;;;;;5045318;28;20112;-65
2024/01/02 08:45:20;;;;;;;1.60;1.50;;;;;;;;;;5044498;28;20493;-66
2024/01/02 08:47:46;;;;;;;1.50;1.40;;;;;;;;;;5042362;28;20045;-66
2024/01/02 08:50:12;;;;;;;3.55;2.03;;;;;;;;;;5046004;28;20057;-65
2024/01/02 08:52:38;;;;;;;4.30;2.13;;;;;;;;;;5044296;28;20045;-65
2024/01/02 08:55:05;;;;;;;3.33;1.77;;;;;;;;;;5045350;28;20055;-65
2024/01/02 08:57:31;;;;;;;3.78;1.85;;;;;;;;;;5046481;28;20052;-65
2024/01/02 08:59:58;;;;;;;6.32;1.42;;;;;;;;;;5044851;28;20120;-65
2024/01/02 09:02:24;;;;;;;8.00;1.73;;;;;;;;;;5043473;28;20071;-65
2024/01/02 09:04:50;;;;;;;7.57;2.22;;;;;;;;;;5043982;28;20485;-65
2024/01/02 09:07:16;;;;;;;5.90;1.52;;;;;;;;;;5046176;28;20091;-66
2024/01/02 09:09:42;;;;;;;6.43;1.88;;;;;;;;;;5041003;28;20213;-66
2024/01/02 09:12:08;;;;;;;7.53;1.38;;;;;;;;;;5044722;28;20041;-66
2024/01/02 09:14:37;;;;;;;5.28;1.20;;;;;;;;;;5044155;28;20049;-66
2024/01/02 09:17:03;;;;;;;6.05;1.35;;;;;;;;;;5039840;28;20045;-66
2024/01/02 09:19:30;;;;;;;5.25;1.35;;;;;;;;;;5037616;28;20045;-66
2024/01/02 09:21:56;;;;;;;8.13;1.83;;;;;;;;;;5044604;28;20048;-65
2024/01/02 09:24:22;;;;;;;8.38;1.77;;;;;;;;;;5041389;28;20041;-66
2024/01/02 09:26:51;;;;;;;6.47;1.70;;;;;;;;;;5043710;28;20090;-66
2024/01/02 09:29:21;;;;;;;4.47;1.27;;;;;;;;;;5042016;28;20037;-66
2024/01/02 09:31:47;;;;;;;5.38;1.45;;;;;;;;;;5044268;28;20068;-65
2024/01/02 09:34:13;;;;;;;5.63;1.33;;;;;;;;;;5046172;28;20045;-65
2024/01/02 09:36:39;;;;;;;8.93;1.88;;;;;;;;;;5045141;28;20052;-65
2024/01/02 09:39:05;;;;;;;3.90;1.08;;;;;;;;;;5045872;28;20032;-65
2024/01/02 09:41:31;;;;;;;10.75;1.98;;;;;;;;;;5044772;28;20051;-65
2024/01/02 09:44:03;;;;;;;5.38;1.33;;;;;;;;;;5045979;28;20118;-65
2024/01/02 09:46:36;;;;;;;3.35;1.38;;;;;;;;;;5045635;28;20040;-65
2024/01/02 09:49:20;;;;;;;8.32;1.63;;;;;;;;;;5045621;28;20484;-66
2024/01/02 09:52:09;;;;;;;7.35;1.55;;;;;;;;;;5043623;28;20057;-65
2024/01/02 09:54:59;;;;;;;8.30;1.83;;;;;;;;;;5044807;28;20390;-65
2024/01/02 09:57:37;;;;;;;5.22;1.02;;;;;;;;;;5045617;28;20070;-64
2024/01/02 10:00:07;;;;;;;10.13;1.42;;;;;;;;;;5043122;28;20033;-66
2024/01/02 10:02:42;;;;;;;9.43;1.90;;;;;;;;;;5038719;28;20068;-64
2024/01/02 10:05:20;;;;;;;10.10;2.65;;;;;;;;;;5041963;28;20080;-63
2024/01/02 10:07:46;;;;;;;9.07;2.15;;;;;;;;;;5040835;28;20337;-61
2024/01/02 10:10:32;;;;;;;4.53;1.85;;;;;;;;;;5044767;28;20053;-62
2024/01/02 10:13:07;;;;;;;7.53;1.83;;;;;;;;;;5045115;28;20441;-59
2024/01/02 10:15:52;;;;;;;10.35;3.00;;;;;;;;;;5044981;28;20037;-62
2024/01/02 10:18:27;;;;;;;8.43;2.25;;;;;;;;;;5040099;28;20421;-61
2024/01/02 10:21:05;;;;;;;8.38;1.75;;;;;;;;;;5044968;28;20528;-64
2024/01/02 10:23:55;;;;;;;11.65;2.05;;;;;;;;;;5046519;28;20079;-64
2024/01/02 10:26:22;;;;;;;15.23;3.45;;;;;;;;;;5043777;28;20056;-63
2024/01/02 10:28:49;;;;;;;3.67;2.03;;;;;;;;;;5043955;28;20041;-63
2024/01/02 10:31:27;;;;;;;8.82;2.00;;;;;;;;;;5045949;28;20063;-64
2024/01/02 10:34:03;;;;;;;13.13;2.80;;;;;;;;;;5043713;28;20543;-63
2024/01/02 10:36:29;;;;;;;7.45;2.22;;;;;;;;;;5042449;28;20045;-63
2024/01/02 10:38:55;;;;;;;8.57;2.42;;;;;;;;;;5043447;28;20037;-63
2024/01/02 10:41:24;;;;;;;9.18;2.42;;;;;;;;;;5044907;28;20049;-63
2024/01/02 10:43:58;;;;;;;6.35;2.00;;;;;;;;;;5045176;28;20037;-63
2024/01/02 10:46:26;;;;;;;6.03;2.10;;;;;;;;;;5043819;28;20565;-63
2024/01/02 10:49:02;;;;;;;7.97;1.80;;;;;;;;;;5042121;28;20557;-63
2024/01/02 10:51:38;;;;;;;10.30;2.17;;;;;;;;;;5042247;28;20048;-63
2024/01/02 10:54:08;;;;;;;14.85;3.30;;;;;;;;;;5040525;28;20052;-63
2024/01/02 10:56:33;;;;;;;11.02;2.78;;;;;;;;;;5041420;28;20045;-63
2024/01/02 10:59:13;;;;;;;8.57;1.77;;;;;;;;;;5045235;28;20103;-63
2024/01/02 11:01:40;;;;;;;12.38;2.22;;;;;;;;;;5042712;28;20122;-63
2024/01/02 11:04:18;;;;;;;10.30;2.72;;;;;;;;;;5045266;28;20041;-63
2024/01/02 11:06:45;;;;;;;12.15;3.15;;;;;;;;;;5043439;28;20037;-64
2024/01/02 11:09:14;;;;;;;10.13;1.95;;;;;;;;;;5043086;28;20049;-63
2024/01/02 11:11:41;;;;;;;12.95;2.13;;;;;;;;;;5043149;28;20028;-64
2024/01/02 11:14:10;;;;;;;8.45;2.42;;;;;;;;;;5037004;28;20134;-63
2024/01/02 11:16:39;;;;;;;13.93;3.13;;;;;;;;;;5044347;28;20114;-63
2024/01/02 11:19:07;;;;;;;7.40;2.65;;;;;;;;;;5043713;28;20045;-63
2024/01/02 11:21:55;;;;;;;11.25;2.58;;;;;;;;;;5040587;28;20053;-63
2024/01/02 11:24:26;;;;;;;7.30;1.85;;;;;;;;;;5039283;28;20086;-63
2024/01/02 11:26:56;;;;;;;6.67;1.50;;;;;;;;;;5044238;28;20506;-63
2024/01/02 11:29:22;;;;;;;8.70;2.00;;;;;;;;;;5044591;28;20549;-63
2024/01/02 11:31:50;;;;;;;6.20;2.05;;;;;;;;;;5044559;28;20033;-63
2024/01/02 11:34:33;;;;;;;5.07;1.70;;;;;;;;;;5044159;28;20045;-63
2024/01/02 11:37:06;;;;;;;11.30;2.53;;;;;;;;;;5044207;28;20496;-63
2024/01/02 11:39:35;;;;;;;11.60;1.75;;;;;;;;;;5041783;28;20033;-63
2024/01/02 11:42:10;;;;;;;7.05;1.92;;;;;;;;;;5043315;28;20045;-63
2024/01/02 11:44:36;;;;;;;7.60;1.73;;;;;;;;;;5044132;28;20056;-63
2024/01/02 11:47:03;;;;;;;3.83;1.45;;;;;;;;;;5048154;28;20095;-63
2024/01/02 11:49:29;;;;;;;6.63;2.25;;;;;;;;;;5043745;28;20048;-63
2024/01/02 11:51:56;;;;;;;9.07;2.75;;;;;;;;;;5044394;28;20076;-63
2024/01/02 11:54:22;;;;;;;8.23;2.10;;;;;;;;;;5046149;28;20112;-65
2024/01/02 11:56:48;;;;;;;6.13;1.80;;;;;;;;;;5045639;28;20124;-64
2024/01/02 11:59:29;;;;;;;8.95;2.10;;;;;;;;;;5046756;28;20106;-64
2024/01/02 12:02:06;;;;;;;7.82;2.45;;;;;;;;;;5046181;28;20083;-63
2024/01/02 12:04:42;;;;;;;8.57;2.22;;;;;;;;;;5046965;28;20057;-64
2024/01/02 12:07:13;;;;;;;8.60;1.90;;;;;;;;;;5034356;28;20094;-64
2024/01/02 12:09:41;;;;;;;6.65;1.90;;;;;;;;;;5047761;28;20055;-64
2024/01/02 12:12:10;;;;;;;5.78;1.92;;;;;;;;;;5047740;28;20396;-64
2024/01/02 12:14:54;;;;;;;2.28;1.23;;;;;;;;;;5046505;28;20132;-65
2024/01/02 12:17:22;;;;;;;5.32;1.23;;;;;;;;;;5042747;28;20660;-64
2024/01/02 12:19:51;;;;;;;4.47;1.23;;;;;;;;;;5047032;28;20667;-64
2024/01/02 12:22:17;;;;;;;4.90;1.77;;;;;;;;;;5042989;28;20055;-64
2024/01/02 12:24:45;;;;;;;3.38;1.38;;;;;;;;;;5044823;28;20037;-64
2024/01/02 12:27:13;;;;;;;5.53;1.75;;;;;;;;;;5047190;28;20523;-63
2024/01/02 12:29:56;;;;;;;4.13;2.20;;;;;;;;;;5047105;28;20056;-63
2024/01/02 12:32:34;;;;;;;11.32;3.45;;;;;;;;;;5046285;28;20033;-64
2024/01/02 12:35:05;;;;;;;13.32;3.80;;;;;;;;;;5044419;28;20040;-63
2024/01/02 12:37:37;;;;;;;11.20;5.68;;;;;;;;;;5048131;28;20409;-64
2024/01/02 12:40:04;;;;;;;;;;;;;;;;;;5046061;28;20106;-65
2024/01/02 12:42:36;;;;;;;11.00;4.90;;;;;;;;;;5047784;28;20389;-65
2024/01/02 12:45:03;;;;;;;13.70;7.32;;;;;;;;;;5042903;28;20052;-64
2024/01/02 12:47:32;;;;;;;15.30;6.57;;;;;;;;;;5047132;28;20056;-64
2024/01/02 12:50:03;;;;;;;14.90;6.68;;;;;;;;;;5047667;28;20650;-64
2024/01/02 12:52:37;;;;;;;14.30;7.20;;;;;;;;;;5046978;28;20045;-64
2024/01/02 12:55:03;;;;;;;20.90;8.55;;;;;;;;;;5041549;28;20075;-64
2024/01/02 12:57:33;;;;;;;15.48;6.85;;;;;;;;;;5048281;28;20041;-64
2024/01/02 12:59:59;;;;;;;12.68;6.05;;;;;;;;;;5047277;28;20535;-64
2024/01/02 13:02:25;;;;;;;11.75;5.07;;;;;;;;;;5047175;28;20496;-64
2024/01/02 13:04:51;;;;;;;5.90;4.13;;;;;;;;;;5044066;28;20037;-64
2024/01/02 13:07:17;;;;;;;8.32;4.28;;;;;;;;;;5045097;28;20139;-64
2024/01/02 13:09:43;;;;;;;11.70;4.30;;;;;;;;;;5046467;28;20037;-64
2024/01/02 13:12:12;;;;;;;9.60;4.18;;;;;;;;;;5044746;28;20036;-63
2024/01/02 13:14:42;;;;;;;7.18;3.00;;;;;;;;;;5045759;28;20048;-63
2024/01/02 13:17:08;;;;;;;3.22;1.80;;;;;;;;;;5045229;28;20090;-63
2024/01/02 13:19:36;;;;;;;3.30;1.92;;;;;;;;;;5043719;28;20444;-63
2024/01/02 13:22:03;;;;;;;2.35;1.73;;;;;;;;;;5044472;28;20063;-63
2024/01/02 13:24:45;;;;;;;3.45;1.77;;;;;;;;;;5045460;28;20140;-63
2024/01/02 13:27:13;;;;;;;5.63;2.03;;;;;;;;;;5046464;28;20413;-63
2024/01/02 13:29:45;;;;;;;3.35;1.40;;;;;;;;;;5045886;28;20603;-63
2024/01/02 13:32:11;;;;;;;3.47;1.80;;;;;;;;;;5045589;28;20052;-64
2024/01/02 13:34:37;;;;;;;5.07;1.73;;;;;;;;;;5045337;28;20045;-64
2024/01/02 13:37:04;;;;;;;3.83;1.55;;;;;;;;;;5039297;28;20045;-64
2024/01/02 13:39:33;;;;;;;4.82;1.75;;;;;;;;;;5047236;28;20032;-64
2024/01/02 13:42:02;;;;;;;4.13;1.25;;;;;;;;;;5046499;28;20041;-64
2024/01/02 13:44:29;;;;;;;5.07;2.33;;;;;;;;;;5046267;28;20045;-64
2024/01/02 13:46:55;;;;;;;5.03;1.38;;;;;;;;;;5045774;28;20037;-64
2024/01/02 13:49:41;;;;;;;3.83;1.38;;;;;;;;;;5044130;28;20052;-64
2024/01/02 13:52:08;;;;;;;2.58;1.45;;;;;;;;;;5045588;28;20045;-64
2024/01/02 13:54:53;;;;;;;7.05;1.48;;;;;;;;;;5046172;28;20063;-64
2024/01/02 13:57:33;;;;;;;3.22;1.67;;;;;;;;;;5042537;28;20053;-64
2024/01/02 14:00:09;;;;;;;5.22;1.75;;;;;;;;;;5045159;28;20496;-64
2024/01/02 14:02:36;;;;;;;4.40;2.08;;;;;;;;;;5042266;28;20777;-64
2024/01/02 14:05:05;;;;;;;4.32;1.65;;;;;;;;;;5043552;28;20103;-62
2024/01/02 14:07:32;;;;;;;2.70;1.20;;;;;;;;;;5045227;28;20080;-64
2024/01/02 14:10:00;;;;;;;1.17;0.70;;;;;;;;;;5044136;28;20047;-63
2024/01/02 14:12:34;;;;;;;3.85;1.27;;;;;;;;;;5045409;28;20040;-65
2024/01/02 14:15:06;;;;;;;1.10;0.80;;;;;;;;;;5043225;28;20053;-61
2024/01/02 14:17:35;;;;;;;1.33;0.73;;;;;;;;;;5045989;28;20686;-64
2024/01/02 14:20:05;;;;;;;1.13;0.63;;;;;;;;;;5044388;28;21061;-61
2024/01/02 14:22:42;;;;;;;2.05;0.40;;;;;;;;;;5043489;28;20083;-61
2024/01/02 14:25:31;;;;;;;1.52;0.63;;;;;;;;;;5037525;28;20038;-61
2024/01/02 14:28:03;;;;;;;2.65;0.73;;;;;;;;;;5043995;28;20076;-61
2024/01/02 14:30:33;;;;;;;3.72;1.23;;;;;;;;;;5045761;28;20067;-61
2024/01/02 14:32:59;;;;;;;2.85;0.88;;;;;;;;;;5045374;28;20064;-62
2024/01/02 14:35:41;;;;;;;2.55;0.88;;;;;;;;;;5045305;28;20355;-63
2024/01/02 14:38:10;;;;;;;3.72;1.20;;;;;;;;;;5043602;28;20091;-63
2024/01/02 14:40:49;;;;;;;1.48;0.95;;;;;;;;;;5043180;28;20045;-63
2024/01/02 14:43:21;;;;;;;3.10;1.00;;;;;;;;;;5044749;28;20079;-63
2024/01/02 14:45:52;;;;;;;6.53;1.20;;;;;;;;;;5043144;28;20052;-63
2024/01/02 14:48:26;;;;;;;3.88;1.45;;;;;;;;;;5045619;28;20041;-64